Time;durP1;ratioP1;P1;durP2;ratioP2;P2;SDS_P1;SDS_P2;PMS_P1;PMS_P2;Temp;Humidity;BMP_temperature;BMP_pressure;BME280_temperature;BME280_humidity;BME280_pressure;Samples;Min_cycle;Max_cycle;Signal;HPM_P1;HPM_P2
2024/03/27 00:00:07;;;;;;;;;;;21.10;37.10;;;;;;3029702;19;4649;-25
2024/03/27 00:01:10;;;;;;;;;;;21.10;37.10;;;;;;3050591;19;4695;-27
2024/03/27 00:02:10;;;;;;;;;;;21.10;37.10;;;;;;3052117;19;4747;-24
2024/03/27 00:03:11;;;;;;;;;;;21.10;37.10;;;;;;3030331;19;4607;-26
2024/03/27 00:04:12;;;;;;;;;;;21.10;37.20;;;;;;3050971;19;4813;-26
2024/03/27 00:05:12;;;;;;;;;;;21.10;37.10;;;;;;3034213;19;4700;-24
2024/03/27 00:06:13;;;;;;;;;;;21.10;37.20;;;;;;3047860;19;2465;-26
2024/03/27 00:07:14;;;;;;;;;;;21.10;37.20;;;;;;3050346;19;4653;-27
2024/03/27 00:08:15;;;;;;;;;;;21.10;37.20;;;;;;3028589;19;4618;-27
2024/03/27 00:09:15;;;;;;;;;;;21.10;37.90;;;;;;3051475;19;4695;-26
2024/03/27 00:10:16;;;;;;;;;;;21.10;37.30;;;;;;3051745;19;4817;-26
2024/03/27 00:11:17;;;;;;;;;;;21.10;37.20;;;;;;3029321;19;4684;-27
2024/03/27 00:12:17;;;;;;;;;;;21.00;37.20;;;;;;3051303;19;4710;-30
2024/03/27 00:13:18;;;;;;;;;;;21.10;37.30;;;;;;3029110;19;4669;-24
2024/03/27 00:14:19;;;;;;;;;;;21.00;37.20;;;;;;3050354;19;4937;-27
2024/03/27 00:15:19;;;;;;;;;;;21.00;37.30;;;;;;3051661;19;4680;-25
2024/03/27 00:16:20;;;;;;;;;;;21.00;37.20;;;;;;3028413;19;4598;-24
2024/03/27 00:17:21;;;;;;;;;;;21.00;37.30;;;;;;3050432;19;4704;-27
2024/03/27 00:18:21;;;;;;;;;;;21.00;37.30;;;;;;3052270;19;4733;-29
2024/03/27 00:19:22;;;;;;;;;;;21.00;37.40;;;;;;3030496;19;4688;-26
2024/03/27 00:20:22;;;;;;;;;;;21.00;37.40;;;;;;3051786;19;4745;-29
2024/03/27 00:21:23;;;;;;;;;;;21.00;37.30;;;;;;3030717;19;4812;-26
2024/03/27 00:22:24;;;;;;;;;;;21.00;37.30;;;;;;3051510;19;4881;-27
2024/03/27 00:23:25;;;;;;;;;;;21.00;37.40;;;;;;3052154;19;4677;-24
2024/03/27 00:24:25;;;;;;;;;;;21.00;37.40;;;;;;3029900;19;4537;-25
2024/03/27 00:25:26;;;;;;;;;;;21.00;37.30;;;;;;3048715;19;4780;-24
2024/03/27 00:26:26;;;;;;;;;;;21.00;37.40;;;;;;3051492;19;4763;-24
2024/03/27 00:27:27;;;;;;;;;;;21.00;37.40;;;;;;3029984;19;4600;-25
2024/03/27 00:28:28;;;;;;;;;;;21.00;37.40;;;;;;3051538;19;4760;-26
2024/03/27 00:29:28;;;;;;;;;;;21.00;37.40;;;;;;3030573;19;4843;-25
2024/03/27 00:30:29;;;;;;;;;;;20.90;37.40;;;;;;3050089;19;4745;-27
2024/03/27 00:31:29;;;;;;;;;;;20.90;37.40;;;;;;3050838;19;4674;-25
2024/03/27 00:32:30;;;;;;;;;;;21.00;37.40;;;;;;3028316;19;4799;-25
2024/03/27 00:33:31;;;;;;;;;;;21.00;37.40;;;;;;3050982;19;4787;-26
2024/03/27 00:34:32;;;;;;;;;;;21.00;37.40;;;;;;3044685;19;4747;-27
2024/03/27 00:35:32;;;;;;;;;;;21.00;37.60;;;;;;3047874;19;5295;-24
2024/03/27 00:36:33;;;;;;;;;;;20.90;37.50;;;;;;3052377;19;4832;-26
2024/03/27 00:37:34;;;;;;;;;;;20.90;37.50;;;;;;3029896;19;4787;-25
2024/03/27 00:38:35;;;;;;;;;;;21.00;37.50;;;;;;3052059;19;4668;-26
2024/03/27 00:39:36;;;;;;;;;;;21.00;37.60;;;;;;3051047;19;4779;-25
2024/03/27 00:40:37;;;;;;;;;;;20.90;37.50;;;;;;3030542;19;4689;-27
2024/03/27 00:41:37;;;;;;;;;;;20.90;37.60;;;;;;3051806;19;4660;-27
2024/03/27 00:42:38;;;;;;;;;;;20.90;37.50;;;;;;3030591;19;4636;-25
2024/03/27 00:43:38;;;;;;;;;;;20.90;37.60;;;;;;3051670;19;4715;-24
2024/03/27 00:44:39;;;;;;;;;;;20.90;37.70;;;;;;3051699;19;4724;-25
2024/03/27 00:45:40;;;;;;;;;;;20.90;37.60;;;;;;3030591;19;4670;-27
2024/03/27 00:46:41;;;;;;;;;;;20.90;37.60;;;;;;3051849;19;4584;-28
2024/03/27 00:47:41;;;;;;;;;;;20.90;37.80;;;;;;3051800;19;4725;-25
2024/03/27 00:48:42;;;;;;;;;;;20.80;37.70;;;;;;3029665;19;4653;-28
2024/03/27 00:49:42;;;;;;;;;;;20.90;37.70;;;;;;3050922;19;4667;-24
2024/03/27 00:50:43;;;;;;;;;;;20.90;37.70;;;;;;3030390;19;4759;-26
2024/03/27 00:51:44;;;;;;;;;;;20.80;37.60;;;;;;3051965;19;4637;-26
2024/03/27 00:52:46;;;;;;;;;;;20.90;37.80;;;;;;3050447;19;4792;-25
2024/03/27 00:53:47;;;;;;;;;;;20.90;37.80;;;;;;3029598;19;4680;-26
2024/03/27 00:54:48;;;;;;;;;;;20.80;37.70;;;;;;3051830;19;4686;-26
2024/03/27 00:55:59;;;;;;;;;;;20.80;37.70;;;;;;3050594;19;4707;-24
2024/03/27 00:56:59;;;;;;;;;;;20.80;37.80;;;;;;3029763;19;4530;-25
2024/03/27 00:58:00;;;;;;;;;;;20.80;37.80;;;;;;3050485;19;4682;-25
2024/03/27 00:59:01;;;;;;;;;;;20.80;37.70;;;;;;3028159;19;4699;-26
2024/03/27 01:00:02;;;;;;;;;;;20.80;37.80;;;;;;3050508;19;4675;-26
2024/03/27 01:01:03;;;;;;;;;;;20.80;37.70;;;;;;3051618;19;5179;-24
2024/03/27 01:02:05;;;;;;;;;;;20.80;37.80;;;;;;3028459;19;4644;-26
2024/03/27 01:03:06;;;;;;;;;;;20.80;37.80;;;;;;3050971;19;4672;-25
2024/03/27 01:04:06;;;;;;;;;;;20.80;38.20;;;;;;3030852;19;4653;-26
2024/03/27 01:05:07;;;;;;;;;;;20.80;37.80;;;;;;3047916;19;4735;-26
2024/03/27 01:06:08;;;;;;;;;;;20.80;37.90;;;;;;3051207;19;4718;-26
2024/03/27 01:07:08;;;;;;;;;;;20.70;37.80;;;;;;3027503;19;4670;-27
2024/03/27 01:08:09;;;;;;;;;;;20.80;37.90;;;;;;3051619;19;4767;-24
2024/03/27 01:09:10;;;;;;;;;;;20.80;37.80;;;;;;3049808;19;4804;-26
2024/03/27 01:10:14;;;;;;;;;;;20.80;37.80;;;;;;3029757;19;4027;-24
2024/03/27 01:11:14;;;;;;;;;;;20.80;37.90;;;;;;3050422;19;4720;-30
2024/03/27 01:12:15;;;;;;;;;;;20.80;37.80;;;;;;3029734;19;4601;-32
2024/03/27 01:13:17;;;;;;;;;;;20.80;37.80;;;;;;3050891;19;4717;-31
2024/03/27 01:14:18;;;;;;;;;;;20.80;37.80;;;;;;3052052;19;4766;-31
2024/03/27 01:15:20;;;;;;;;;;;20.80;37.90;;;;;;3027855;19;4684;-34
2024/03/27 01:16:23;;;;;;;;;;;20.80;37.90;;;;;;3051891;19;4831;-33
2024/03/27 01:17:24;;;;;;;;;;;20.80;37.90;;;;;;3028915;19;4733;-32
2024/03/27 01:18:25;;;;;;;;;;;20.80;37.90;;;;;;3049149;19;4730;-33
2024/03/27 01:19:25;;;;;;;;;;;20.70;37.90;;;;;;3050582;19;4731;-32
2024/03/27 01:20:27;;;;;;;;;;;20.80;37.90;;;;;;3028426;19;4608;-32
2024/03/27 01:21:28;;;;;;;;;;;20.80;37.90;;;;;;3051226;19;4674;-30
2024/03/27 01:22:28;;;;;;;;;;;20.80;37.90;;;;;;3050526;19;4723;-33
2024/03/27 01:23:29;;;;;;;;;;;20.80;38.00;;;;;;3027781;19;4692;-33
2024/03/27 01:24:30;;;;;;;;;;;20.80;38.00;;;;;;3049093;19;4739;-30
2024/03/27 01:25:30;;;;;;;;;;;20.70;38.00;;;;;;3029311;19;4824;-30
2024/03/27 01:26:31;;;;;;;;;;;20.70;38.00;;;;;;3049518;19;4742;-33
2024/03/27 01:27:31;;;;;;;;;;;20.70;38.20;;;;;;3050277;19;4742;-30
2024/03/27 01:28:32;;;;;;;;;;;20.70;37.90;;;;;;3027838;19;4620;-30
2024/03/27 01:29:33;;;;;;;;;;;20.70;38.00;;;;;;3050534;19;4723;-32
2024/03/27 01:30:33;;;;;;;;;;;20.70;38.00;;;;;;3028208;19;4672;-30
2024/03/27 01:31:34;;;;;;;;;;;20.70;37.90;;;;;;3052123;19;4928;-32
2024/03/27 01:32:35;;;;;;;;;;;20.70;38.00;;;;;;3050456;19;4717;-29
2024/03/27 01:33:35;;;;;;;;;;;20.70;38.00;;;;;;3026529;19;4710;-30
2024/03/27 01:34:36;;;;;;;;;;;20.70;38.00;;;;;;3049416;19;4735;-33
2024/03/27 01:35:43;;;;;;;;;;;20.70;38.10;;;;;;3051822;19;4724;-32
2024/03/27 01:36:44;;;;;;;;;;;20.70;38.20;;;;;;3027482;19;4639;-32
2024/03/27 01:37:45;;;;;;;;;;;20.70;38.10;;;;;;3051902;19;4765;-32
2024/03/27 01:38:45;;;;;;;;;;;20.70;38.10;;;;;;3026827;19;4680;-30
2024/03/27 01:39:46;;;;;;;;;;;20.70;38.10;;;;;;3049937;19;4750;-31
2024/03/27 01:40:47;;;;;;;;;;;20.70;38.10;;;;;;3048883;19;4820;-32
2024/03/27 01:41:47;;;;;;;;;;;20.70;38.10;;;;;;3028238;19;4678;-31
2024/03/27 01:42:58;;;;;;;;;;;20.60;38.10;;;;;;3051009;19;4633;-34
2024/03/27 01:43:59;;;;;;;;;;;20.70;38.80;;;;;;3028646;19;4653;-32
2024/03/27 01:44:59;;;;;;;;;;;20.70;38.10;;;;;;3050829;19;4643;-33
2024/03/27 01:46:00;;;;;;;;;;;20.70;38.10;;;;;;3049522;19;4653;-32
2024/03/27 01:47:01;;;;;;;;;;;20.60;38.10;;;;;;3029467;19;4704;-31
2024/03/27 01:48:02;;;;;;;;;;;20.70;38.10;;;;;;3049690;19;4701;-32
2024/03/27 01:49:02;;;;;;;;;;;20.70;38.10;;;;;;3051735;19;4634;-33
2024/03/27 01:50:04;;;;;;;;;;;20.70;38.10;;;;;;3027317;19;4640;-32
2024/03/27 01:51:04;;;;;;;;;;;20.70;38.10;;;;;;3050315;19;4708;-34
2024/03/27 01:52:05;;;;;;;;;;;20.70;38.10;;;;;;3030822;19;4671;-34
2024/03/27 01:53:06;;;;;;;;;;;20.70;38.10;;;;;;3049527;19;4578;-30
2024/03/27 01:54:08;;;;;;;;;;;20.70;38.20;;;;;;3047181;19;4605;-31
2024/03/27 01:55:08;;;;;;;;;;;20.70;38.20;;;;;;3025839;19;4661;-31
2024/03/27 01:56:09;;;;;;;;;;;20.60;38.20;;;;;;3050402;19;4833;-35
2024/03/27 01:57:10;;;;;;;;;;;20.60;38.10;;;;;;3049170;19;4688;-32
2024/03/27 01:58:10;;;;;;;;;;;20.60;38.10;;;;;;3029228;19;4077;-31
2024/03/27 01:59:11;;;;;;;;;;;20.60;38.10;;;;;;3048571;19;4829;-34
2024/03/27 02:00:12;;;;;;;;;;;20.60;38.10;;;;;;3027690;19;4607;-29
2024/03/27 02:01:13;;;;;;;;;;;20.60;38.10;;;;;;3048800;19;4694;-33
2024/03/27 02:02:14;;;;;;;;;;;20.60;38.10;;;;;;3049680;19;4738;-31
2024/03/27 02:03:14;;;;;;;;;;;20.60;38.10;;;;;;3030099;19;4625;-31
2024/03/27 02:04:15;;;;;;;;;;;21.00;38.30;;;;;;3048891;19;4809;-30
2024/03/27 02:05:15;;;;;;;;;;;20.60;38.20;;;;;;3029839;19;4687;-32
2024/03/27 02:06:16;;;;;;;;;;;20.60;38.10;;;;;;3049871;19;1193;-31
2024/03/27 02:07:17;;;;;;;;;;;20.60;38.10;;;;;;3050728;19;21879;-33
2024/03/27 02:08:17;;;;;;;;;;;20.60;38.10;;;;;;3028268;19;4615;-33
2024/03/27 02:09:18;;;;;;;;;;;20.60;38.10;;;;;;3051318;19;4720;-31
2024/03/27 02:10:18;;;;;;;;;;;20.50;38.00;;;;;;3049365;19;4781;-30
2024/03/27 02:11:19;;;;;;;;;;;20.50;38.10;;;;;;3030117;19;4565;-31
2024/03/27 02:12:20;;;;;;;;;;;20.50;38.10;;;;;;3049177;19;4713;-31
2024/03/27 02:13:20;;;;;;;;;;;20.50;38.10;;;;;;3028604;19;4751;-32
2024/03/27 02:14:21;;;;;;;;;;;20.60;38.20;;;;;;3047642;19;4700;-32
2024/03/27 02:15:22;;;;;;;;;;;20.50;38.00;;;;;;3047971;19;4714;-35
2024/03/27 02:16:22;;;;;;;;;;;20.50;38.10;;;;;;3030571;19;4639;-32
2024/03/27 02:17:23;;;;;;;;;;;20.50;38.10;;;;;;3052044;19;4683;-32
2024/03/27 02:18:23;;;;;;;;;;;20.50;38.10;;;;;;3055172;19;4649;-33
2024/03/27 02:19:24;;;;;;;;;;;20.50;38.00;;;;;;3030223;19;4614;-29
2024/03/27 02:20:27;;;;;;;;;;;20.60;38.20;;;;;;3052035;19;4684;-33
2024/03/27 02:21:28;;;;;;;;;;;20.50;38.00;;;;;;3030752;19;4656;-26
2024/03/27 02:22:29;;;;;;;;;;;20.50;38.20;;;;;;3051161;19;4754;-25
2024/03/27 02:23:33;;;;;;;;;;;20.50;38.20;;;;;;3053211;19;4813;-26
2024/03/27 02:24:40;;;;;;;;;;;20.50;38.20;;;;;;3031524;19;4636;-25
2024/03/27 02:25:51;;;;;;;;;;;20.50;38.20;;;;;;3052041;19;4790;-26
2024/03/27 02:26:51;;;;;;;;;;;20.50;38.20;;;;;;3031670;19;4761;-27
2024/03/27 02:27:53;;;;;;;;;;;20.50;38.20;;;;;;3052513;19;4719;-27
2024/03/27 02:28:54;;;;;;;;;;;20.50;38.20;;;;;;3054196;19;4643;-24
2024/03/27 02:29:54;;;;;;;;;;;20.50;38.20;;;;;;3031706;19;4718;-29
2024/03/27 02:30:55;;;;;;;;;;;20.50;38.10;;;;;;3052776;19;4625;-24
2024/03/27 02:31:55;;;;;;;;;;;20.50;38.10;;;;;;3030515;19;4665;-27
2024/03/27 02:32:56;;;;;;;;;;;20.50;38.20;;;;;;3052230;19;4869;-26
2024/03/27 02:33:57;;;;;;;;;;;20.50;38.20;;;;;;3051601;19;4698;-26
2024/03/27 02:34:57;;;;;;;;;;;20.50;38.20;;;;;;3029961;19;4738;-26
2024/03/27 02:35:58;;;;;;;;;;;20.50;38.10;;;;;;3053759;19;4652;-25
2024/03/27 02:36:58;;;;;;;;;;;20.50;38.20;;;;;;3052684;19;4637;-26
2024/03/27 02:37:59;;;;;;;;;;;20.50;38.20;;;;;;3029949;19;4653;-25
2024/03/27 02:39:00;;;;;;;;;;;20.50;38.10;;;;;;3051756;19;4725;-24
2024/03/27 02:40:00;;;;;;;;;;;20.50;38.20;;;;;;3030384;19;4731;-26
2024/03/27 02:41:01;;;;;;;;;;;20.40;38.20;;;;;;3051072;19;4706;-25
2024/03/27 02:42:01;;;;;;;;;;;20.40;38.30;;;;;;3051928;19;4816;-25
2024/03/27 02:43:02;;;;;;;;;;;20.40;38.20;;;;;;3029234;19;4680;-25
2024/03/27 02:44:03;;;;;;;;;;;20.40;38.30;;;;;;3053430;19;4702;-24
2024/03/27 02:45:04;;;;;;;;;;;20.40;38.30;;;;;;3052877;19;4640;-28
2024/03/27 02:46:05;;;;;;;;;;;20.40;38.30;;;;;;3028849;19;4870;-25
2024/03/27 02:47:06;;;;;;;;;;;20.40;38.40;;;;;;3053288;19;4929;-25
2024/03/27 02:48:07;;;;;;;;;;;20.40;39.00;;;;;;3029911;19;4748;-25
2024/03/27 02:49:09;;;;;;;;;;;20.40;38.40;;;;;;3051277;19;4862;-27
2024/03/27 02:50:10;;;;;;;;;;;20.40;38.40;;;;;;3051256;19;4952;-25
2024/03/27 02:51:12;;;;;;;;;;;20.40;38.40;;;;;;3029505;19;4648;-26
2024/03/27 02:52:14;;;;;;;;;;;20.40;38.40;;;;;;3052177;19;4781;-27
2024/03/27 02:53:14;;;;;;;;;;;20.40;38.40;;;;;;3031503;19;4680;-25
2024/03/27 02:54:15;;;;;;;;;;;20.40;38.40;;;;;;3052623;19;4703;-26
2024/03/27 02:55:15;;;;;;;;;;;20.30;38.30;;;;;;3051733;19;4685;-27
2024/03/27 02:56:16;;;;;;;;;;;20.30;38.40;;;;;;3029170;19;4661;-26
2024/03/27 02:57:17;;;;;;;;;;;20.30;38.40;;;;;;3050339;19;4675;-28
2024/03/27 02:58:17;;;;;;;;;;;20.30;38.40;;;;;;3051544;19;4705;-28
2024/03/27 02:59:18;;;;;;;;;;;20.30;38.40;;;;;;3029944;19;4692;-26
2024/03/27 03:00:19;;;;;;;;;;;20.30;38.40;;;;;;3051830;19;4756;-27
2024/03/27 03:01:21;;;;;;;;;;;20.30;38.20;;;;;;3028472;19;4748;-25
2024/03/27 03:02:21;;;;;;;;;;;20.30;38.30;;;;;;3052245;19;4738;-24
2024/03/27 03:03:22;;;;;;;;;;;20.30;38.40;;;;;;3052774;19;4864;-26
2024/03/27 03:04:22;;;;;;;;;;;20.30;38.40;;;;;;3030564;19;4650;-26
2024/03/27 03:05:23;;;;;;;;;;;20.30;38.40;;;;;;3051525;19;4736;-26
2024/03/27 03:06:24;;;;;;;;;;;20.30;38.40;;;;;;3053578;19;4738;-26
2024/03/27 03:07:24;;;;;;;;;;;20.30;38.40;;;;;;3030588;19;4621;-27
2024/03/27 03:08:25;;;;;;;;;;;20.30;38.30;;;;;;3053300;19;4699;-25
2024/03/27 03:09:26;;;;;;;;;;;20.30;38.40;;;;;;3031651;19;4681;-26
2024/03/27 03:10:26;;;;;;;;;;;20.30;38.40;;;;;;3048878;19;4793;-27
2024/03/27 03:11:27;;;;;;;;;;;20.30;38.30;;;;;;3052366;19;4715;-25
2024/03/27 03:12:28;;;;;;;;;;;20.30;38.40;;;;;;3029975;19;4627;-28
2024/03/27 03:13:28;;;;;;;;;;;20.30;38.30;;;;;;3052256;19;4743;-26
2024/03/27 03:14:29;;;;;;;;;;;20.30;38.30;;;;;;3052357;19;4653;-26
2024/03/27 03:15:30;;;;;;;;;;;20.30;38.60;;;;;;3030403;19;4692;-26
2024/03/27 03:16:31;;;;;;;;;;;20.40;38.20;;;;;;3053122;19;4732;-26
2024/03/27 03:17:31;;;;;;;;;;;20.30;38.20;;;;;;3030686;19;4731;-25
2024/03/27 03:18:32;;;;;;;;;;;20.30;38.10;;;;;;3051391;19;4682;-27
2024/03/27 03:19:36;;;;;;;;;;;20.30;38.10;;;;;;3052413;19;4754;-25
2024/03/27 03:20:36;;;;;;;;;;;20.30;38.10;;;;;;3029900;19;4851;-26
2024/03/27 03:21:38;;;;;;;;;;;20.30;38.10;;;;;;3052282;19;4667;-25
2024/03/27 03:22:38;;;;;;;;;;;20.30;38.20;;;;;;3029402;19;4679;-24
2024/03/27 03:23:39;;;;;;;;;;;20.30;38.20;;;;;;3052597;19;4747;-25
2024/03/27 03:24:40;;;;;;;;;;;20.30;38.20;;;;;;3051590;19;4741;-26
2024/03/27 03:25:40;;;;;;;;;;;20.30;38.20;;;;;;3030974;19;4857;-24
2024/03/27 03:26:41;;;;;;;;;;;20.30;38.20;;;;;;3051790;19;4731;-25
2024/03/27 03:27:41;;;;;;;;;;;20.30;38.20;;;;;;3051809;19;4694;-26
2024/03/27 03:28:42;;;;;;;;;;;20.30;38.20;;;;;;3029677;19;4639;-26
2024/03/27 03:29:43;;;;;;;;;;;20.20;38.10;;;;;;3052365;19;4692;-25
2024/03/27 03:30:43;;;;;;;;;;;20.30;38.20;;;;;;3031238;19;4686;-25
2024/03/27 03:31:44;;;;;;;;;;;20.20;38.20;;;;;;3052652;19;4692;-33
2024/03/27 03:32:45;;;;;;;;;;;20.20;38.10;;;;;;3052675;19;4677;-33
2024/03/27 03:33:45;;;;;;;;;;;20.20;38.20;;;;;;3030757;19;4715;-32
2024/03/27 03:34:46;;;;;;;;;;;20.10;38.10;;;;;;3051239;19;4811;-31
2024/03/27 03:35:56;;;;;;;;;;;20.10;38.20;;;;;;3051285;19;4657;-30
2024/03/27 03:36:56;;;;;;;;;;;20.20;38.20;;;;;;3031608;19;10479;-32
2024/03/27 03:37:57;;;;;;;;;;;20.20;38.20;;;;;;3050914;19;4652;-32
2024/03/27 03:38:58;;;;;;;;;;;20.20;38.20;;;;;;3030882;19;4651;-30
2024/03/27 03:39:58;;;;;;;;;;;20.20;38.30;;;;;;3052669;19;4653;-32
2024/03/27 03:41:08;;;;;;;;;;;20.20;38.10;;;;;;3051090;19;4602;-33
2024/03/27 03:42:08;;;;;;;;;;;20.10;38.20;;;;;;3029466;19;4987;-32
2024/03/27 03:43:09;;;;;;;;;;;20.20;38.20;;;;;;3051047;19;4701;-32
2024/03/27 03:44:10;;;;;;;;;;;20.20;38.30;;;;;;3028863;19;4901;-32
2024/03/27 03:45:10;;;;;;;;;;;20.20;38.20;;;;;;3050301;19;4757;-32
2024/03/27 03:46:11;;;;;;;;;;;20.20;38.20;;;;;;3050185;19;4745;-30
2024/03/27 03:47:11;;;;;;;;;;;20.30;38.20;;;;;;3029541;19;4815;-33
2024/03/27 03:48:12;;;;;;;;;;;20.30;38.20;;;;;;3051396;19;4860;-31
2024/03/27 03:49:13;;;;;;;;;;;20.30;38.20;;;;;;3029711;19;4734;-32
2024/03/27 03:50:13;;;;;;;;;;;20.40;38.30;;;;;;3051138;19;4751;-31
2024/03/27 03:51:14;;;;;;;;;;;20.40;38.10;;;;;;3051592;19;4728;-31
2024/03/27 03:52:14;;;;;;;;;;;20.40;38.00;;;;;;3031843;19;4557;-31
2024/03/27 03:53:15;;;;;;;;;;;20.50;38.10;;;;;;3049868;19;4687;-32
2024/03/27 03:54:16;;;;;;;;;;;20.50;37.90;;;;;;3051505;19;4659;-30
2024/03/27 03:55:16;;;;;;;;;;;20.60;37.90;;;;;;3031785;19;4629;-30
2024/03/27 03:56:17;;;;;;;;;;;20.60;37.80;;;;;;3051068;19;4657;-31
2024/03/27 03:57:18;;;;;;;;;;;20.60;37.80;;;;;;3031487;19;4742;-33
2024/03/27 03:58:19;;;;;;;;;;;20.60;37.80;;;;;;3050300;19;4753;-31
2024/03/27 03:59:19;;;;;;;;;;;20.60;37.70;;;;;;3051145;19;4772;-33
2024/03/27 04:00:21;;;;;;;;;;;20.60;37.70;;;;;;3028123;19;4663;-32
2024/03/27 04:01:21;;;;;;;;;;;20.60;37.70;;;;;;3052361;19;4661;-33
2024/03/27 04:02:22;;;;;;;;;;;20.60;37.60;;;;;;3051560;19;4772;-30
2024/03/27 04:03:23;;;;;;;;;;;20.60;37.50;;;;;;3030512;19;4568;-33
2024/03/27 04:04:23;;;;;;;;;;;20.70;37.40;;;;;;3050009;19;4750;-30
2024/03/27 04:05:24;;;;;;;;;;;20.70;37.30;;;;;;3031632;19;4682;-32
2024/03/27 04:06:26;;;;;;;;;;;20.70;37.30;;;;;;3051627;19;4877;-31
2024/03/27 04:07:26;;;;;;;;;;;20.80;37.40;;;;;;3050997;19;4709;-32
2024/03/27 04:08:27;;;;;;;;;;;20.70;37.20;;;;;;3031165;19;4645;-29
2024/03/27 04:09:30;;;;;;;;;;;20.70;37.20;;;;;;3050111;19;4913;-30
2024/03/27 04:10:30;;;;;;;;;;;20.80;37.30;;;;;;3052440;19;4787;-31
2024/03/27 04:11:31;;;;;;;;;;;20.80;37.30;;;;;;3028724;19;22056;-33
2024/03/27 04:12:32;;;;;;;;;;;20.80;37.20;;;;;;3050939;19;4880;-32
2024/03/27 04:13:33;;;;;;;;;;;20.70;37.20;;;;;;3028589;19;4735;-34
2024/03/27 04:14:34;;;;;;;;;;;20.80;37.20;;;;;;3051591;19;5022;-34
2024/03/27 04:15:41;;;;;;;;;;;20.70;37.10;;;;;;3051016;19;4665;-32
2024/03/27 04:16:42;;;;;;;;;;;20.70;37.10;;;;;;3027528;19;4641;-32
2024/03/27 04:17:42;;;;;;;;;;;20.80;37.10;;;;;;3052615;19;4703;-32
2024/03/27 04:18:43;;;;;;;;;;;20.80;37.10;;;;;;3028570;19;4882;-34
2024/03/27 04:19:43;;;;;;;;;;;20.80;37.00;;;;;;3052735;19;4690;-30
2024/03/27 04:20:44;;;;;;;;;;;20.80;36.90;;;;;;3050950;19;4673;-30
2024/03/27 04:21:45;;;;;;;;;;;20.90;36.90;;;;;;3031482;19;4700;-32
2024/03/27 04:22:46;;;;;;;;;;;20.90;36.90;;;;;;3050095;19;4715;-31
2024/03/27 04:23:46;;;;;;;;;;;20.90;36.90;;;;;;3053036;19;4725;-30
2024/03/27 04:24:47;;;;;;;;;;;20.90;36.80;;;;;;3026796;19;4632;-34
2024/03/27 04:25:48;;;;;;;;;;;20.90;36.80;;;;;;3050367;19;4756;-32
2024/03/27 04:26:50;;;;;;;;;;;20.90;36.80;;;;;;3030063;19;4696;-32
2024/03/27 04:27:51;;;;;;;;;;;20.90;36.80;;;;;;3052391;19;4674;-32
2024/03/27 04:28:52;;;;;;;;;;;20.90;36.80;;;;;;3050584;19;4803;-30
2024/03/27 04:29:54;;;;;;;;;;;20.90;36.80;;;;;;3027020;19;4696;-31
2024/03/27 04:30:54;;;;;;;;;;;20.90;36.80;;;;;;3050661;19;4825;-33
2024/03/27 04:31:55;;;;;;;;;;;20.90;36.80;;;;;;3029038;19;4706;-33
2024/03/27 04:32:56;;;;;;;;;;;21.00;36.80;;;;;;3052503;19;4848;-32
2024/03/27 04:33:56;;;;;;;;;;;20.90;36.80;;;;;;3050423;19;4772;-32
2024/03/27 04:34:57;;;;;;;;;;;20.90;36.80;;;;;;3029168;19;4778;-33
2024/03/27 04:35:57;;;;;;;;;;;20.90;36.70;;;;;;3050942;19;4721;-31
2024/03/27 04:36:58;;;;;;;;;;;20.90;36.80;;;;;;3051867;19;4673;-33
2024/03/27 04:37:59;;;;;;;;;;;20.90;36.80;;;;;;3028861;19;4708;-33
2024/03/27 04:38:59;;;;;;;;;;;20.90;36.60;;;;;;3049899;19;4698;-33
2024/03/27 04:40:00;;;;;;;;;;;20.90;36.50;;;;;;3028634;19;4715;-34
2024/03/27 04:41:07;;;;;;;;;;;20.90;36.40;;;;;;3051550;19;4615;-30
2024/03/27 04:42:12;;;;;;;;;;;21.00;36.50;;;;;;3049246;19;4661;-24
2024/03/27 04:43:13;;;;;;;;;;;21.00;36.50;;;;;;3031274;19;4658;-26
2024/03/27 04:44:13;;;;;;;;;;;21.00;36.50;;;;;;3049402;19;4793;-26
2024/03/27 04:45:14;;;;;;;;;;;21.00;36.50;;;;;;3030668;19;4666;-25
2024/03/27 04:46:15;;;;;;;;;;;21.00;36.40;;;;;;3049714;19;4743;-26
2024/03/27 04:47:16;;;;;;;;;;;21.10;36.40;;;;;;3051511;19;4748;-25
2024/03/27 04:48:16;;;;;;;;;;;21.10;36.20;;;;;;3030329;19;4602;-28
2024/03/27 04:49:17;;;;;;;;;;;21.10;36.10;;;;;;3050088;19;4816;-26
2024/03/27 04:50:17;;;;;;;;;;;21.20;36.00;;;;;;3052029;19;4862;-24
2024/03/27 04:51:18;;;;;;;;;;;21.30;36.00;;;;;;3028333;19;4850;-25
2024/03/27 04:52:19;;;;;;;;;;;21.20;35.90;;;;;;3051608;19;4714;-26
2024/03/27 04:53:19;;;;;;;;;;;21.20;35.90;;;;;;3028911;19;4811;-26
2024/03/27 04:54:20;;;;;;;;;;;21.30;35.90;;;;;;3050524;19;4736;-25
2024/03/27 04:55:20;;;;;;;;;;;21.30;35.90;;;;;;3050019;19;4727;-25
2024/03/27 04:56:21;;;;;;;;;;;21.30;35.80;;;;;;3029717;19;4698;-27
2024/03/27 04:57:22;;;;;;;;;;;21.30;35.80;;;;;;3050752;19;4681;-26
2024/03/27 04:58:23;;;;;;;;;;;21.30;35.90;;;;;;3050748;19;4726;-25
2024/03/27 04:59:24;;;;;;;;;;;21.30;35.90;;;;;;3030536;19;4622;-29
2024/03/27 05:00:25;;;;;;;;;;;21.30;35.90;;;;;;3048944;19;4838;-25
2024/03/27 05:01:25;;;;;;;;;;;21.20;35.80;;;;;;3029526;19;4723;-26
2024/03/27 05:02:26;;;;;;;;;;;21.20;35.80;;;;;;3050622;19;4676;-27
2024/03/27 05:03:26;;;;;;;;;;;21.20;35.90;;;;;;3050620;19;4742;-26
2024/03/27 05:04:27;;;;;;;;;;;21.20;35.90;;;;;;3028501;19;4642;-24
2024/03/27 05:05:28;;;;;;;;;;;21.20;36.00;;;;;;3050933;19;4757;-26
2024/03/27 05:06:28;;;;;;;;;;;21.20;36.00;;;;;;3050656;19;4723;-26
2024/03/27 05:07:29;;;;;;;;;;;21.20;36.00;;;;;;3029338;19;4779;-27
2024/03/27 05:08:30;;;;;;;;;;;21.10;36.10;;;;;;3050574;19;4730;-25
2024/03/27 05:09:36;;;;;;;;;;;21.10;36.10;;;;;;3029621;19;4829;-25
2024/03/27 05:10:37;;;;;;;;;;;21.10;36.10;;;;;;3050363;19;4821;-25
2024/03/27 05:11:38;;;;;;;;;;;21.10;36.10;;;;;;3050650;19;4721;-26
2024/03/27 05:12:39;;;;;;;;;;;21.10;36.30;;;;;;3029477;19;4648;-24
2024/03/27 05:13:40;;;;;;;;;;;21.00;36.20;;;;;;3048934;19;4697;-25
2024/03/27 05:14:41;;;;;;;;;;;21.00;36.30;;;;;;3028083;19;4663;-24
2024/03/27 05:15:42;;;;;;;;;;;21.10;36.50;;;;;;3052454;19;4685;-29
2024/03/27 05:16:42;;;;;;;;;;;21.10;36.50;;;;;;3049247;19;4765;-27
2024/03/27 05:17:43;;;;;;;;;;;21.20;36.50;;;;;;3030477;19;4665;-26
2024/03/27 05:18:44;;;;;;;;;;;21.10;36.30;;;;;;3050560;19;4684;-25
2024/03/27 05:19:47;;;;;;;;;;;21.20;36.30;;;;;;3050200;19;4867;-26
2024/03/27 05:20:48;;;;;;;;;;;21.30;36.30;;;;;;3029134;19;4685;-27
2024/03/27 05:21:48;;;;;;;;;;;21.30;36.20;;;;;;3050137;19;4697;-25
2024/03/27 05:22:49;;;;;;;;;;;21.30;36.10;;;;;;3028359;19;4722;-26
2024/03/27 05:23:50;;;;;;;;;;;21.30;36.00;;;;;;3052331;19;4744;-24
2024/03/27 05:24:50;;;;;;;;;;;21.30;36.10;;;;;;3049153;19;4744;-26
2024/03/27 05:25:52;;;;;;;;;;;21.30;36.00;;;;;;3029758;19;4720;-26
2024/03/27 05:26:53;;;;;;;;;;;21.30;36.00;;;;;;3049539;19;4650;-25
2024/03/27 05:27:53;;;;;;;;;;;21.30;35.90;;;;;;3029989;19;4747;-24
2024/03/27 05:28:55;;;;;;;;;;;21.30;35.90;;;;;;3049057;19;5232;-26
2024/03/27 05:29:56;;;;;;;;;;;21.40;36.00;;;;;;3052006;19;4824;-29
2024/03/27 05:30:56;;;;;;;;;;;21.30;36.00;;;;;;3027821;19;4650;-27
2024/03/27 05:31:57;;;;;;;;;;;21.20;36.00;;;;;;3050545;19;4740;-25
2024/03/27 05:32:57;;;;;;;;;;;21.30;36.10;;;;;;3048876;19;4648;-27
2024/03/27 05:33:58;;;;;;;;;;;21.20;36.00;;;;;;3028048;19;4751;-25
2024/03/27 05:34:59;;;;;;;;;;;21.20;36.10;;;;;;3048179;19;4718;-29
2024/03/27 05:36:00;;;;;;;;;;;21.20;36.00;;;;;;3030890;19;4703;-25
2024/03/27 05:37:00;;;;;;;;;;;21.20;36.00;;;;;;3050083;19;4792;-25
2024/03/27 05:38:01;;;;;;;;;;;21.20;36.10;;;;;;3051957;19;4858;-26
2024/03/27 05:39:02;;;;;;;;;;;21.20;36.20;;;;;;3028481;19;4653;-24
2024/03/27 05:40:03;;;;;;;;;;;21.10;36.30;;;;;;3048854;19;5365;-25
2024/03/27 05:41:04;;;;;;;;;;;21.10;36.30;;;;;;3049812;19;4677;-26
2024/03/27 05:42:05;;;;;;;;;;;21.20;36.50;;;;;;3030007;19;4620;-25
2024/03/27 05:43:05;;;;;;;;;;;21.20;36.40;;;;;;3050112;19;4774;-26
2024/03/27 05:44:12;;;;;;;;;;;21.30;36.30;;;;;;3027539;19;4613;-25
2024/03/27 05:45:13;;;;;;;;;;;21.30;36.30;;;;;;3046808;19;4689;-26
2024/03/27 05:46:13;;;;;;;;;;;21.30;36.30;;;;;;3051311;19;4713;-25
2024/03/27 05:47:15;;;;;;;;;;;21.40;36.30;;;;;;3029256;19;4659;-25
2024/03/27 05:48:16;;;;;;;;;;;21.30;36.20;;;;;;3049660;19;4695;-26
2024/03/27 05:49:16;;;;;;;;;;;21.40;36.10;;;;;;3030554;19;4700;-25
2024/03/27 05:50:18;;;;;;;;;;;21.40;36.10;;;;;;3048031;19;4774;-25
2024/03/27 05:51:19;;;;;;;;;;;21.40;36.10;;;;;;3051908;19;5131;-24
2024/03/27 05:52:19;;;;;;;;;;;21.30;36.10;;;;;;3030978;19;4760;-25
2024/03/27 05:53:20;;;;;;;;;;;21.30;36.10;;;;;;3053374;19;4752;-32
2024/03/27 05:54:21;;;;;;;;;;;21.30;36.10;;;;;;3052151;19;4833;-33
2024/03/27 05:55:21;;;;;;;;;;;21.30;36.10;;;;;;3030158;19;4601;-31
2024/03/27 05:56:22;;;;;;;;;;;21.30;36.10;;;;;;3052381;19;4693;-32
2024/03/27 05:57:23;;;;;;;;;;;21.30;36.10;;;;;;3031852;19;4670;-31
2024/03/27 05:58:24;;;;;;;;;;;21.30;36.20;;;;;;3053044;19;4690;-31
2024/03/27 05:59:25;;;;;;;;;;;21.30;36.20;;;;;;3055187;19;4670;-34
2024/03/27 06:00:25;;;;;;;;;;;21.30;36.10;;;;;;3031376;19;4653;-30